sensor_id;sensor_type;location;lat;lon;timestamp;P1;durP1;ratioP1;P2;durP2;ratioP2
9964;SDS011;5023;53.554;9.964;2022-09-09T00:04:12;21.65;;;19.50;;
9964;SDS011;5023;53.554;9.964;2022-09-09T00:09:47;23.08;;;20.45;;
9964;SDS011;5023;53.554;9.964;2022-09-09T00:14:56;21.45;;;19.15;;
9964;SDS011;5023;53.554;9.964;2022-09-09T00:20:10;27.40;;;24.45;;
9964;SDS011;5023;53.554;9.964;2022-09-09T00:25:19;27.15;;;24.35;;
9964;SDS011;5023;53.554;9.964;2022-09-09T00:30:31;27.65;;;24.52;;
9964;SDS011;5023;53.554;9.964;2022-09-09T00:35:36;28.38;;;25.27;;
9964;SDS011;5023;53.554;9.964;2022-09-09T00:40:48;31.15;;;26.90;;
9964;SDS011;5023;53.554;9.964;2022-09-09T00:51:37;31.83;;;26.77;;
9964;SDS011;5023;53.554;9.964;2022-09-09T00:56:52;29.40;;;24.88;;
9964;SDS011;5023;53.554;9.964;2022-09-09T01:02:06;30.48;;;25.52;;
9964;SDS011;5023;53.554;9.964;2022-09-09T01:07:16;25.88;;;23.17;;
9964;SDS011;5023;53.554;9.964;2022-09-09T01:12:25;28.08;;;22.58;;
9964;SDS011;5023;53.554;9.964;2022-09-09T01:17:46;27.08;;;23.45;;
9964;SDS011;5023;53.554;9.964;2022-09-09T01:23:01;27.95;;;23.88;;
9964;SDS011;5023;53.554;9.964;2022-09-09T01:28:21;25.63;;;22.38;;
9964;SDS011;5023;53.554;9.964;2022-09-09T01:33:27;27.13;;;22.38;;
9964;SDS011;5023;53.554;9.964;2022-09-09T01:38:32;24.08;;;21.50;;
9964;SDS011;5023;53.554;9.964;2022-09-09T01:43:37;26.17;;;22.70;;
9964;SDS011;5023;53.554;9.964;2022-09-09T01:48:40;28.42;;;23.02;;
9964;SDS011;5023;53.554;9.964;2022-09-09T01:53:43;26.52;;;23.13;;
9964;SDS011;5023;53.554;9.964;2022-09-09T01:58:51;26.70;;;23.05;;
9964;SDS011;5023;53.554;9.964;2022-09-09T02:09:31;26.80;;;21.75;;
9964;SDS011;5023;53.554;9.964;2022-09-09T02:14:37;26.80;;;22.90;;
9964;SDS011;5023;53.554;9.964;2022-09-09T02:19:46;28.25;;;21.55;;
9964;SDS011;5023;53.554;9.964;2022-09-09T02:24:54;23.55;;;20.73;;
9964;SDS011;5023;53.554;9.964;2022-09-09T02:30:01;23.65;;;19.55;;
9964;SDS011;5023;53.554;9.964;2022-09-09T02:35:05;21.60;;;18.95;;
9964;SDS011;5023;53.554;9.964;2022-09-09T02:40:11;22.13;;;19.73;;
9964;SDS011;5023;53.554;9.964;2022-09-09T02:45:18;18.40;;;16.50;;
9964;SDS011;5023;53.554;9.964;2022-09-09T02:50:26;21.60;;;19.30;;
9964;SDS011;5023;53.554;9.964;2022-09-09T02:55:38;20.73;;;18.52;;
9964;SDS011;5023;53.554;9.964;2022-09-09T03:00:44;21.70;;;19.50;;
9964;SDS011;5023;53.554;9.964;2022-09-09T03:05:48;20.30;;;18.30;;
9964;SDS011;5023;53.554;9.964;2022-09-09T03:10:54;20.50;;;18.40;;
9964;SDS011;5023;53.554;9.964;2022-09-09T03:15:58;19.70;;;17.77;;
9964;SDS011;5023;53.554;9.964;2022-09-09T03:21:04;19.30;;;17.30;;
9964;SDS011;5023;53.554;9.964;2022-09-09T03:26:07;19.50;;;17.25;;
9964;SDS011;5023;53.554;9.964;2022-09-09T03:31:13;19.05;;;17.17;;
9964;SDS011;5023;53.554;9.964;2022-09-09T03:36:16;17.83;;;16.13;;
9964;SDS011;5023;53.554;9.964;2022-09-09T03:41:18;16.98;;;15.27;;
9964;SDS011;5023;53.554;9.964;2022-09-09T03:46:24;19.67;;;17.58;;
9964;SDS011;5023;53.554;9.964;2022-09-09T03:51:26;20.13;;;18.08;;
9964;SDS011;5023;53.554;9.964;2022-09-09T03:56:30;19.13;;;17.23;;
9964;SDS011;5023;53.554;9.964;2022-09-09T04:01:33;19.05;;;17.15;;
9964;SDS011;5023;53.554;9.964;2022-09-09T04:06:36;19.50;;;16.65;;
9964;SDS011;5023;53.554;9.964;2022-09-09T04:11:40;18.38;;;16.48;;
9964;SDS011;5023;53.554;9.964;2022-09-09T04:16:45;18.73;;;16.80;;
9964;SDS011;5023;53.554;9.964;2022-09-09T04:21:47;18.45;;;16.65;;
9964;SDS011;5023;53.554;9.964;2022-09-09T04:26:51;19.75;;;16.25;;
9964;SDS011;5023;53.554;9.964;2022-09-09T04:31:56;18.30;;;15.75;;
9964;SDS011;5023;53.554;9.964;2022-09-09T04:36:58;19.95;;;16.45;;
9964;SDS011;5023;53.554;9.964;2022-09-09T04:42:01;17.80;;;15.40;;
9964;SDS011;5023;53.554;9.964;2022-09-09T04:47:06;15.52;;;13.93;;
9964;SDS011;5023;53.554;9.964;2022-09-09T04:52:11;14.40;;;13.07;;
9964;SDS011;5023;53.554;9.964;2022-09-09T04:57:13;13.65;;;12.25;;
9964;SDS011;5023;53.554;9.964;2022-09-09T05:02:18;12.65;;;11.35;;
9964;SDS011;5023;53.554;9.964;2022-09-09T05:07:21;12.73;;;11.43;;
9964;SDS011;5023;53.554;9.964;2022-09-09T05:12:26;12.93;;;11.73;;
9964;SDS011;5023;53.554;9.964;2022-09-09T05:17:30;13.25;;;11.75;;
9964;SDS011;5023;53.554;9.964;2022-09-09T05:22:32;11.95;;;10.85;;
9964;SDS011;5023;53.554;9.964;2022-09-09T05:27:34;12.77;;;11.45;;
9964;SDS011;5023;53.554;9.964;2022-09-09T05:32:40;14.15;;;12.75;;
9964;SDS011;5023;53.554;9.964;2022-09-09T05:37:48;19.88;;;13.68;;
9964;SDS011;5023;53.554;9.964;2022-09-09T05:42:51;16.40;;;14.73;;
9964;SDS011;5023;53.554;9.964;2022-09-09T05:47:55;12.05;;;10.85;;
9964;SDS011;5023;53.554;9.964;2022-09-09T05:52:57;12.68;;;10.65;;
9964;SDS011;5023;53.554;9.964;2022-09-09T05:58:01;11.15;;;10.05;;
9964;SDS011;5023;53.554;9.964;2022-09-09T06:03:06;11.25;;;10.32;;
9964;SDS011;5023;53.554;9.964;2022-09-09T06:08:21;11.07;;;10.07;;
9964;SDS011;5023;53.554;9.964;2022-09-09T06:13:24;11.07;;;9.98;;
9964;SDS011;5023;53.554;9.964;2022-09-09T06:18:28;10.65;;;9.55;;
9964;SDS011;5023;53.554;9.964;2022-09-09T06:23:36;11.38;;;9.25;;
9964;SDS011;5023;53.554;9.964;2022-09-09T06:28:41;11.02;;;9.93;;
9964;SDS011;5023;53.554;9.964;2022-09-09T06:33:45;9.80;;;8.77;;
9964;SDS011;5023;53.554;9.964;2022-09-09T06:38:48;9.38;;;8.32;;
9964;SDS011;5023;53.554;9.964;2022-09-09T06:43:51;9.43;;;8.63;;
9964;SDS011;5023;53.554;9.964;2022-09-09T06:48:54;9.48;;;8.57;;
9964;SDS011;5023;53.554;9.964;2022-09-09T06:54:00;9.02;;;7.80;;
9964;SDS011;5023;53.554;9.964;2022-09-09T06:59:04;10.02;;;9.00;;
9964;SDS011;5023;53.554;9.964;2022-09-09T07:04:11;9.30;;;8.40;;
9964;SDS011;5023;53.554;9.964;2022-09-09T07:09:15;8.88;;;8.07;;
9964;SDS011;5023;53.554;9.964;2022-09-09T07:14:19;9.20;;;8.40;;
9964;SDS011;5023;53.554;9.964;2022-09-09T07:19:26;9.43;;;8.45;;
9964;SDS011;5023;53.554;9.964;2022-09-09T07:24:31;8.95;;;7.72;;
9964;SDS011;5023;53.554;9.964;2022-09-09T07:29:36;8.15;;;7.35;;
9964;SDS011;5023;53.554;9.964;2022-09-09T07:34:40;7.90;;;7.20;;
9964;SDS011;5023;53.554;9.964;2022-09-09T07:39:43;8.00;;;7.30;;
9964;SDS011;5023;53.554;9.964;2022-09-09T07:44:48;7.82;;;6.70;;
9964;SDS011;5023;53.554;9.964;2022-09-09T07:49:56;7.60;;;6.22;;
9964;SDS011;5023;53.554;9.964;2022-09-09T07:54:58;8.57;;;5.93;;
9964;SDS011;5023;53.554;9.964;2022-09-09T08:00:05;6.22;;;5.72;;
9964;SDS011;5023;53.554;9.964;2022-09-09T08:05:10;12.07;;;9.45;;
9964;SDS011;5023;53.554;9.964;2022-09-09T08:10:12;9.10;;;7.13;;
9964;SDS011;5023;53.554;9.964;2022-09-09T08:15:16;10.65;;;9.57;;
9964;SDS011;5023;53.554;9.964;2022-09-09T08:20:19;8.80;;;7.50;;
9964;SDS011;5023;53.554;9.964;2022-09-09T08:25:31;6.72;;;5.18;;
9964;SDS011;5023;53.554;9.964;2022-09-09T08:30:34;7.03;;;5.57;;
9964;SDS011;5023;53.554;9.964;2022-09-09T08:35:38;6.15;;;5.10;;
9964;SDS011;5023;53.554;9.964;2022-09-09T08:40:43;6.30;;;3.78;;
9964;SDS011;5023;53.554;9.964;2022-09-09T08:45:54;7.47;;;4.50;;
9964;SDS011;5023;53.554;9.964;2022-09-09T08:51:09;5.50;;;4.60;;
9964;SDS011;5023;53.554;9.964;2022-09-09T08:56:12;4.57;;;4.00;;
9964;SDS011;5023;53.554;9.964;2022-09-09T09:01:35;4.18;;;3.40;;
9964;SDS011;5023;53.554;9.964;2022-09-09T09:06:49;3.97;;;3.50;;
9964;SDS011;5023;53.554;9.964;2022-09-09T09:11:59;3.67;;;2.70;;
9964;SDS011;5023;53.554;9.964;2022-09-09T09:17:03;4.43;;;3.20;;
9964;SDS011;5023;53.554;9.964;2022-09-09T09:22:13;2.90;;;2.60;;
9964;SDS011;5023;53.554;9.964;2022-09-09T09:27:21;5.05;;;3.53;;
9964;SDS011;5023;53.554;9.964;2022-09-09T09:32:33;6.13;;;3.45;;
9964;SDS011;5023;53.554;9.964;2022-09-09T09:37:39;3.95;;;3.00;;
9964;SDS011;5023;53.554;9.964;2022-09-09T09:42:48;3.45;;;3.20;;
9964;SDS011;5023;53.554;9.964;2022-09-09T09:48:03;5.65;;;3.35;;
9964;SDS011;5023;53.554;9.964;2022-09-09T09:53:18;18.88;;;3.88;;
9964;SDS011;5023;53.554;9.964;2022-09-09T09:58:26;5.53;;;3.75;;
9964;SDS011;5023;53.554;9.964;2022-09-09T10:03:35;3.65;;;3.35;;
9964;SDS011;5023;53.554;9.964;2022-09-09T10:08:45;7.15;;;3.50;;
9964;SDS011;5023;53.554;9.964;2022-09-09T10:13:51;6.45;;;3.38;;
9964;SDS011;5023;53.554;9.964;2022-09-09T10:19:19;4.35;;;3.17;;
9964;SDS011;5023;53.554;9.964;2022-09-09T10:30:28;3.60;;;3.00;;
9964;SDS011;5023;53.554;9.964;2022-09-09T10:35:52;5.43;;;3.08;;
9964;SDS011;5023;53.554;9.964;2022-09-09T10:41:16;4.05;;;2.60;;
9964;SDS011;5023;53.554;9.964;2022-09-09T10:47:07;2.78;;;2.58;;
9964;SDS011;5023;53.554;9.964;2022-09-09T10:52:51;4.28;;;2.67;;
9964;SDS011;5023;53.554;9.964;2022-09-09T10:58:10;2.72;;;2.53;;
9964;SDS011;5023;53.554;9.964;2022-09-09T11:03:34;3.88;;;2.67;;
9964;SDS011;5023;53.554;9.964;2022-09-09T11:08:57;3.70;;;2.65;;
9964;SDS011;5023;53.554;9.964;2022-09-09T11:14:19;3.03;;;2.00;;
9964;SDS011;5023;53.554;9.964;2022-09-09T11:19:36;1.60;;;1.50;;
9964;SDS011;5023;53.554;9.964;2022-09-09T11:25:19;3.30;;;3.00;;
9964;SDS011;5023;53.554;9.964;2022-09-09T11:30:53;2.80;;;1.90;;
9964;SDS011;5023;53.554;9.964;2022-09-09T11:42:22;2.58;;;2.25;;
9964;SDS011;5023;53.554;9.964;2022-09-09T11:47:33;3.13;;;2.37;;
9964;SDS011;5023;53.554;9.964;2022-09-09T11:53:04;4.63;;;3.42;;
9964;SDS011;5023;53.554;9.964;2022-09-09T11:59:18;3.83;;;2.40;;
9964;SDS011;5023;53.554;9.964;2022-09-09T12:04:37;4.88;;;2.75;;
9964;SDS011;5023;53.554;9.964;2022-09-09T12:09:46;2.97;;;2.45;;
9964;SDS011;5023;53.554;9.964;2022-09-09T12:14:57;4.75;;;2.95;;
9964;SDS011;5023;53.554;9.964;2022-09-09T12:20:08;2.75;;;2.33;;
9964;SDS011;5023;53.554;9.964;2022-09-09T12:25:17;20.90;;;15.27;;
9964;SDS011;5023;53.554;9.964;2022-09-09T12:30:24;3.53;;;2.50;;
9964;SDS011;5023;53.554;9.964;2022-09-09T12:35:37;4.05;;;2.53;;
9964;SDS011;5023;53.554;9.964;2022-09-09T12:40:53;4.43;;;2.40;;
9964;SDS011;5023;53.554;9.964;2022-09-09T12:46:01;3.03;;;2.53;;
9964;SDS011;5023;53.554;9.964;2022-09-09T12:51:19;2.40;;;2.30;;
9964;SDS011;5023;53.554;9.964;2022-09-09T12:56:28;3.47;;;3.17;;
9964;SDS011;5023;53.554;9.964;2022-09-09T13:01:32;3.45;;;2.80;;
9964;SDS011;5023;53.554;9.964;2022-09-09T13:06:36;3.00;;;2.63;;
9964;SDS011;5023;53.554;9.964;2022-09-09T13:11:39;8.07;;;3.30;;
9964;SDS011;5023;53.554;9.964;2022-09-09T13:16:54;3.60;;;3.30;;
9964;SDS011;5023;53.554;9.964;2022-09-09T13:21:59;7.95;;;4.00;;
9964;SDS011;5023;53.554;9.964;2022-09-09T13:27:23;10.10;;;4.75;;
9964;SDS011;5023;53.554;9.964;2022-09-09T13:32:29;6.80;;;3.83;;
9964;SDS011;5023;53.554;9.964;2022-09-09T13:37:33;5.03;;;3.13;;
9964;SDS011;5023;53.554;9.964;2022-09-09T13:42:37;8.40;;;5.38;;
9964;SDS011;5023;53.554;9.964;2022-09-09T13:47:43;7.00;;;3.83;;
9964;SDS011;5023;53.554;9.964;2022-09-09T13:52:49;4.15;;;3.75;;
9964;SDS011;5023;53.554;9.964;2022-09-09T13:57:58;5.47;;;4.40;;
9964;SDS011;5023;53.554;9.964;2022-09-09T14:03:02;4.68;;;4.03;;
9964;SDS011;5023;53.554;9.964;2022-09-09T14:08:06;5.07;;;4.40;;
9964;SDS011;5023;53.554;9.964;2022-09-09T14:13:11;7.68;;;6.30;;
9964;SDS011;5023;53.554;9.964;2022-09-09T14:18:13;7.00;;;6.28;;
9964;SDS011;5023;53.554;9.964;2022-09-09T14:23:16;7.68;;;5.80;;
9964;SDS011;5023;53.554;9.964;2022-09-09T14:28:18;27.13;;;24.58;;
9964;SDS011;5023;53.554;9.964;2022-09-09T14:33:24;14.60;;;11.18;;
9964;SDS011;5023;53.554;9.964;2022-09-09T14:38:30;6.65;;;5.47;;
9964;SDS011;5023;53.554;9.964;2022-09-09T14:43:39;7.70;;;6.90;;
9964;SDS011;5023;53.554;9.964;2022-09-09T14:48:45;12.48;;;11.18;;
9964;SDS011;5023;53.554;9.964;2022-09-09T14:53:53;7.60;;;6.88;;
9964;SDS011;5023;53.554;9.964;2022-09-09T14:58:59;9.05;;;7.38;;
9964;SDS011;5023;53.554;9.964;2022-09-09T15:04:03;6.13;;;5.32;;
9964;SDS011;5023;53.554;9.964;2022-09-09T15:09:08;5.03;;;4.15;;
9964;SDS011;5023;53.554;9.964;2022-09-09T15:14:13;3.80;;;3.50;;
9964;SDS011;5023;53.554;9.964;2022-09-09T15:19:19;4.93;;;4.53;;
9964;SDS011;5023;53.554;9.964;2022-09-09T15:24:22;5.72;;;4.28;;
9964;SDS011;5023;53.554;9.964;2022-09-09T15:29:26;4.75;;;4.40;;
9964;SDS011;5023;53.554;9.964;2022-09-09T15:34:28;7.55;;;5.55;;
9964;SDS011;5023;53.554;9.964;2022-09-09T15:39:32;6.18;;;5.13;;
9964;SDS011;5023;53.554;9.964;2022-09-09T15:44:40;5.80;;;5.20;;
9964;SDS011;5023;53.554;9.964;2022-09-09T15:49:43;12.75;;;11.05;;
9964;SDS011;5023;53.554;9.964;2022-09-09T15:54:46;7.60;;;6.40;;
9964;SDS011;5023;53.554;9.964;2022-09-09T15:59:49;8.82;;;3.95;;
9964;SDS011;5023;53.554;9.964;2022-09-09T16:04:51;3.58;;;3.28;;
9964;SDS011;5023;53.554;9.964;2022-09-09T16:09:57;3.40;;;2.92;;
9964;SDS011;5023;53.554;9.964;2022-09-09T16:14:59;2.25;;;2.13;;
9964;SDS011;5023;53.554;9.964;2022-09-09T16:20:01;3.33;;;2.58;;
9964;SDS011;5023;53.554;9.964;2022-09-09T16:25:07;2.78;;;2.58;;
9964;SDS011;5023;53.554;9.964;2022-09-09T16:30:10;3.05;;;2.75;;
9964;SDS011;5023;53.554;9.964;2022-09-09T16:35:13;3.58;;;3.28;;
9964;SDS011;5023;53.554;9.964;2022-09-09T16:40:22;5.07;;;4.53;;
9964;SDS011;5023;53.554;9.964;2022-09-09T16:45:25;5.47;;;4.35;;
9964;SDS011;5023;53.554;9.964;2022-09-09T16:50:27;5.28;;;3.70;;
9964;SDS011;5023;53.554;9.964;2022-09-09T16:55:31;4.43;;;4.03;;
9964;SDS011;5023;53.554;9.964;2022-09-09T17:00:35;5.32;;;3.80;;
9964;SDS011;5023;53.554;9.964;2022-09-09T17:05:39;5.53;;;5.03;;
9964;SDS011;5023;53.554;9.964;2022-09-09T17:10:44;4.55;;;3.60;;
9964;SDS011;5023;53.554;9.964;2022-09-09T17:15:47;3.97;;;3.58;;
9964;SDS011;5023;53.554;9.964;2022-09-09T17:20:49;4.32;;;3.20;;
9964;SDS011;5023;53.554;9.964;2022-09-09T17:25:59;6.07;;;3.47;;
9964;SDS011;5023;53.554;9.964;2022-09-09T17:31:04;3.88;;;3.17;;
9964;SDS011;5023;53.554;9.964;2022-09-09T17:36:09;3.45;;;3.15;;
9964;SDS011;5023;53.554;9.964;2022-09-09T17:41:15;5.88;;;5.00;;
9964;SDS011;5023;53.554;9.964;2022-09-09T17:46:24;8.38;;;6.80;;
9964;SDS011;5023;53.554;9.964;2022-09-09T17:51:28;5.55;;;5.05;;
9964;SDS011;5023;53.554;9.964;2022-09-09T17:56:35;6.80;;;6.10;;
9964;SDS011;5023;53.554;9.964;2022-09-09T18:01:39;8.38;;;7.57;;
9964;SDS011;5023;53.554;9.964;2022-09-09T18:06:44;9.25;;;8.27;;
9964;SDS011;5023;53.554;9.964;2022-09-09T18:11:49;7.95;;;6.97;;
9964;SDS011;5023;53.554;9.964;2022-09-09T18:16:53;8.50;;;7.70;;
9964;SDS011;5023;53.554;9.964;2022-09-09T18:21:55;9.80;;;8.90;;
9964;SDS011;5023;53.554;9.964;2022-09-09T18:27:01;17.35;;;15.13;;
9964;SDS011;5023;53.554;9.964;2022-09-09T18:32:07;20.83;;;16.80;;
9964;SDS011;5023;53.554;9.964;2022-09-09T18:37:09;17.58;;;14.43;;
9964;SDS011;5023;53.554;9.964;2022-09-09T18:42:13;11.77;;;10.35;;
9964;SDS011;5023;53.554;9.964;2022-09-09T18:47:15;7.88;;;7.18;;
9964;SDS011;5023;53.554;9.964;2022-09-09T18:52:18;7.40;;;6.18;;
9964;SDS011;5023;53.554;9.964;2022-09-09T18:57:27;6.68;;;5.60;;
9964;SDS011;5023;53.554;9.964;2022-09-09T19:02:30;7.30;;;6.55;;
9964;SDS011;5023;53.554;9.964;2022-09-09T19:07:32;10.07;;;9.18;;
9964;SDS011;5023;53.554;9.964;2022-09-09T19:12:38;8.90;;;7.10;;
9964;SDS011;5023;53.554;9.964;2022-09-09T19:17:42;10.95;;;8.82;;
9964;SDS011;5023;53.554;9.964;2022-09-09T19:22:44;9.88;;;8.93;;
9964;SDS011;5023;53.554;9.964;2022-09-09T19:27:48;8.73;;;7.25;;
9964;SDS011;5023;53.554;9.964;2022-09-09T19:32:50;14.43;;;11.70;;
9964;SDS011;5023;53.554;9.964;2022-09-09T19:37:52;17.67;;;15.85;;
9964;SDS011;5023;53.554;9.964;2022-09-09T19:42:57;9.27;;;7.18;;
9964;SDS011;5023;53.554;9.964;2022-09-09T19:48:01;8.43;;;7.63;;
9964;SDS011;5023;53.554;9.964;2022-09-09T19:53:05;9.98;;;7.05;;
9964;SDS011;5023;53.554;9.964;2022-09-09T19:58:09;8.48;;;7.68;;
9964;SDS011;5023;53.554;9.964;2022-09-09T20:03:11;13.73;;;10.75;;
9964;SDS011;5023;53.554;9.964;2022-09-09T20:08:13;7.57;;;6.85;;
9964;SDS011;5023;53.554;9.964;2022-09-09T20:13:16;8.40;;;7.43;;
9964;SDS011;5023;53.554;9.964;2022-09-09T20:18:19;11.80;;;10.70;;
9964;SDS011;5023;53.554;9.964;2022-09-09T20:23:21;7.82;;;7.10;;
9964;SDS011;5023;53.554;9.964;2022-09-09T20:28:25;6.97;;;6.38;;
9964;SDS011;5023;53.554;9.964;2022-09-09T20:33:28;6.80;;;6.15;;
9964;SDS011;5023;53.554;9.964;2022-09-09T20:38:31;7.32;;;6.63;;
9964;SDS011;5023;53.554;9.964;2022-09-09T20:43:35;7.30;;;6.00;;
9964;SDS011;5023;53.554;9.964;2022-09-09T20:48:40;12.40;;;11.23;;
9964;SDS011;5023;53.554;9.964;2022-09-09T20:53:43;9.10;;;8.30;;
9964;SDS011;5023;53.554;9.964;2022-09-09T20:58:46;7.88;;;7.13;;
9964;SDS011;5023;53.554;9.964;2022-09-09T21:03:48;8.93;;;8.02;;
9964;SDS011;5023;53.554;9.964;2022-09-09T21:08:54;7.13;;;6.40;;
9964;SDS011;5023;53.554;9.964;2022-09-09T21:13:58;8.00;;;6.88;;
9964;SDS011;5023;53.554;9.964;2022-09-09T21:19:03;6.88;;;6.28;;
9964;SDS011;5023;53.554;9.964;2022-09-09T21:24:06;6.90;;;6.30;;
9964;SDS011;5023;53.554;9.964;2022-09-09T21:29:10;7.63;;;6.93;;
9964;SDS011;5023;53.554;9.964;2022-09-09T21:34:13;8.25;;;7.55;;
9964;SDS011;5023;53.554;9.964;2022-09-09T21:39:17;8.00;;;7.20;;
9964;SDS011;5023;53.554;9.964;2022-09-09T21:44:21;6.63;;;6.03;;
9964;SDS011;5023;53.554;9.964;2022-09-09T21:49:25;10.57;;;6.85;;
9964;SDS011;5023;53.554;9.964;2022-09-09T21:54:27;10.52;;;8.05;;
9964;SDS011;5023;53.554;9.964;2022-09-09T21:59:32;14.95;;;13.38;;
9964;SDS011;5023;53.554;9.964;2022-09-09T22:04:40;7.68;;;6.40;;
9964;SDS011;5023;53.554;9.964;2022-09-09T22:09:43;5.40;;;4.90;;
9964;SDS011;5023;53.554;9.964;2022-09-09T22:14:46;4.57;;;4.18;;
9964;SDS011;5023;53.554;9.964;2022-09-09T22:19:51;15.68;;;11.88;;
9964;SDS011;5023;53.554;9.964;2022-09-09T22:24:53;19.40;;;16.42;;
9964;SDS011;5023;53.554;9.964;2022-09-09T22:29:56;46.35;;;37.85;;
9964;SDS011;5023;53.554;9.964;2022-09-09T22:34:58;6.97;;;6.13;;
9964;SDS011;5023;53.554;9.964;2022-09-09T22:40:03;8.80;;;6.40;;
9964;SDS011;5023;53.554;9.964;2022-09-09T22:45:10;6.13;;;5.13;;
9964;SDS011;5023;53.554;9.964;2022-09-09T22:50:12;5.95;;;5.00;;
9964;SDS011;5023;53.554;9.964;2022-09-09T22:55:14;4.45;;;4.05;;
9964;SDS011;5023;53.554;9.964;2022-09-09T23:00:18;6.82;;;5.15;;
9964;SDS011;5023;53.554;9.964;2022-09-09T23:05:21;7.68;;;6.88;;
9964;SDS011;5023;53.554;9.964;2022-09-09T23:10:24;6.05;;;5.22;;
9964;SDS011;5023;53.554;9.964;2022-09-09T23:15:34;11.82;;;8.30;;
9964;SDS011;5023;53.554;9.964;2022-09-09T23:20:36;11.00;;;9.75;;
9964;SDS011;5023;53.554;9.964;2022-09-09T23:25:42;9.73;;;8.73;;
9964;SDS011;5023;53.554;9.964;2022-09-09T23:30:46;6.97;;;6.28;;
9964;SDS011;5023;53.554;9.964;2022-09-09T23:35:55;5.80;;;5.30;;
9964;SDS011;5023;53.554;9.964;2022-09-09T23:40:59;16.27;;;14.57;;
9964;SDS011;5023;53.554;9.964;2022-09-09T23:46:05;6.78;;;6.15;;
9964;SDS011;5023;53.554;9.964;2022-09-09T23:51:12;31.92;;;21.77;;
9964;SDS011;5023;53.554;9.964;2022-09-09T23:56:17;9.18;;;8.25;;
